Terminal Aerodrome Forecast
Issued by NWS

Home | Current Version | Previous Version | Text Only | Print | Product List | Glossary On
Versions: 1 2 3 4 5 6 7 8 9 10 11 12 13 14 15 16 17
000
FTPQ31 PGUM 170540
TAFGUM
TAF

TAF
PGRO 170540Z 1706/1806 05007KT P6SM VCSH SCT012 SCT030 BKN100
      TEMPO 1706/1710 4SM SHRA SCT012 BKN030
     FM171200 06015KT P6SM VCSH SCT020 SCT040 BKN070=

USA.gov is the U.S. government's official web portal to all federal, state and local government web resources and services.